Time;durP1;ratioP1;P1;durP2;ratioP2;P2;SDS_P1;SDS_P2;PMS_P1;PMS_P2;Temp;Humidity;BMP_temperature;BMP_pressure;BME280_temperature;BME280_humidity;BME280_pressure;Samples;Min_cycle;Max_cycle;Signal;HPM_P1;HPM_P2
2023/05/16 00:01:29;;;;;;;20.42;4.80;;;13.70;99.90;;;;;;5050902;28;20048;-73
2023/05/16 00:03:56;;;;;;;17.33;4.55;;;13.60;99.90;;;;;;5054817;28;20496;-74
2023/05/16 00:06:22;;;;;;;17.58;4.45;;;13.60;99.90;;;;;;5056452;28;20028;-73
2023/05/16 00:08:48;;;;;;;21.20;5.00;;;13.60;99.90;;;;;;5053345;28;20009;-73
2023/05/16 00:11:16;;;;;;;18.08;4.50;;;13.60;99.90;;;;;;5054956;28;20024;-75
2023/05/16 00:13:41;;;;;;;16.67;4.80;;;13.50;99.90;;;;;;5050975;28;20037;-73
2023/05/16 00:16:07;;;;;;;17.17;5.20;;;13.50;99.90;;;;;;5053203;28;20029;-73
2023/05/16 00:18:36;;;;;;;24.80;4.60;;;13.50;99.90;;;;;;5054280;28;20485;-74
2023/05/16 00:21:03;;;;;;;19.63;4.80;;;13.40;99.90;;;;;;5053078;28;20032;-73
2023/05/16 00:23:30;;;;;;;21.60;4.93;;;13.30;99.90;;;;;;5050435;28;20503;-73
2023/05/16 00:25:56;;;;;;;25.23;5.07;;;13.20;99.90;;;;;;5055580;28;20024;-75
2023/05/16 00:28:21;;;;;;;15.55;4.88;;;13.20;99.90;;;;;;5052332;28;20018;-77
2023/05/16 00:30:47;;;;;;;21.80;4.53;;;13.30;99.90;;;;;;5054517;28;20033;-74
2023/05/16 00:33:13;;;;;;;19.58;4.15;;;13.20;99.90;;;;;;5055900;28;20522;-76
2023/05/16 00:35:39;;;;;;;20.40;4.20;;;13.30;99.90;;;;;;5037054;28;20366;-75
2023/05/16 00:38:05;;;;;;;21.83;4.10;;;13.20;99.90;;;;;;5037044;28;20423;-74
2023/05/16 00:40:31;;;;;;;21.42;4.20;;;13.20;99.90;;;;;;5037937;28;20442;-74
2023/05/16 00:42:57;;;;;;;21.77;4.15;;;13.20;99.90;;;;;;5051544;28;20362;-74
2023/05/16 00:45:23;;;;;;;16.17;3.70;;;13.30;99.90;;;;;;5057351;28;20020;-75
2023/05/16 00:47:50;;;;;;;17.67;3.70;;;13.20;99.90;;;;;;5050243;28;20107;-77
2023/05/16 00:50:16;;;;;;;15.27;4.15;;;13.20;99.90;;;;;;5049912;28;20033;-74
2023/05/16 00:52:42;;;;;;;16.83;3.88;;;13.30;99.90;;;;;;5047867;28;20027;-74
2023/05/16 00:55:11;;;;;;;21.02;3.63;;;13.20;99.90;;;;;;5053417;28;20507;-75
2023/05/16 00:57:38;;;;;;;19.52;4.32;;;13.10;99.90;;;;;;5052963;28;20366;-74
2023/05/16 01:00:05;;;;;;;20.80;4.32;;;13.10;99.90;;;;;;5050491;28;20056;-74
2023/05/16 01:02:33;;;;;;;22.42;4.05;;;13.00;99.90;;;;;;5050333;28;20107;-76
2023/05/16 01:04:59;;;;;;;17.90;3.85;;;13.00;99.90;;;;;;5043796;28;20123;-75
2023/05/16 01:07:25;;;;;;;18.17;4.05;;;13.10;99.90;;;;;;5049392;28;20047;-74
2023/05/16 01:09:51;;;;;;;18.65;3.95;;;13.10;99.90;;;;;;5057484;28;20021;-75
2023/05/16 01:12:28;;;;;;;14.20;3.58;;;13.00;99.90;;;;;;5046685;28;20033;-76
2023/05/16 01:15:38;;;;;;;29.08;4.40;;;13.00;99.90;;;;;;5052477;28;20044;-75
2023/05/16 01:18:46;;;;;;;21.95;4.28;;;13.00;99.90;;;;;;5046530;28;20112;-76
2023/05/16 01:21:21;;;;;;;26.33;4.07;;;12.90;99.90;;;;;;5050962;28;20079;-75
2023/05/16 01:24:08;;;;;;;17.42;3.97;;;13.00;99.90;;;;;;5048124;28;20025;-75
2023/05/16 01:26:35;;;;;;;15.15;3.78;;;12.90;99.90;;;;;;5048126;28;20100;-75
2023/05/16 01:29:02;;;;;;;17.52;3.28;;;12.90;99.90;;;;;;5051786;28;20025;-75
2023/05/16 01:31:28;;;;;;;20.25;3.35;;;12.80;99.90;;;;;;5047853;28;20024;-75
2023/05/16 01:33:54;;;;;;;14.45;3.80;;;12.70;99.90;;;;;;5048121;28;20025;-75
2023/05/16 01:36:35;;;;;;;18.75;3.65;;;12.80;99.90;;;;;;5048043;28;20024;-75
2023/05/16 01:39:18;;;;;;;22.38;4.78;;;12.80;99.90;;;;;;5052809;28;20044;-76
2023/05/16 01:42:13;;;;;;;22.67;4.07;;;12.80;99.90;;;;;;5054670;28;20043;-76
2023/05/16 01:44:53;;;;;;;13.50;3.17;;;12.70;99.90;;;;;;5045572;28;20029;-75
2023/05/16 01:47:20;;;;;;;15.43;4.00;;;12.70;99.90;;;;;;5051294;28;20086;-74
2023/05/16 01:49:50;;;;;;;18.95;3.92;;;12.60;99.90;;;;;;5050846;28;20024;-75
2023/05/16 01:52:26;;;;;;;21.70;3.33;;;12.70;99.90;;;;;;5049500;28;20389;-74
2023/05/16 01:54:55;;;;;;;20.05;3.72;;;12.60;99.90;;;;;;5050381;28;20124;-75
2023/05/16 01:57:25;;;;;;;18.80;3.28;;;12.60;99.90;;;;;;5051350;28;20100;-74
2023/05/16 01:59:50;;;;;;;19.65;4.55;;;12.50;99.90;;;;;;5046378;28;20044;-74
2023/05/16 02:02:19;;;;;;;21.50;4.03;;;12.50;99.90;;;;;;5052815;28;20393;-75
2023/05/16 02:04:45;;;;;;;19.15;3.10;;;12.50;99.90;;;;;;5053718;28;20374;-75
2023/05/16 02:07:13;;;;;;;17.98;3.72;;;12.50;99.90;;;;;;5045682;28;20075;-74
2023/05/16 02:09:39;;;;;;;17.65;3.33;;;12.40;99.90;;;;;;5053675;28;20013;-75
2023/05/16 02:12:05;;;;;;;18.05;3.30;;;12.40;99.90;;;;;;5050590;28;20032;-78
2023/05/16 02:14:31;;;;;;;15.35;3.22;;;12.30;99.90;;;;;;5056878;28;20032;-75
2023/05/16 02:16:57;;;;;;;16.50;3.30;;;12.20;99.90;;;;;;5054215;28;20376;-77
2023/05/16 02:19:23;;;;;;;18.52;3.58;;;12.20;99.90;;;;;;5057541;28;20070;-75
2023/05/16 02:21:50;;;;;;;15.55;3.20;;;12.20;99.90;;;;;;5058510;28;20041;-75
2023/05/16 02:24:15;;;;;;;15.27;3.17;;;12.20;99.90;;;;;;5058523;28;20032;-75
2023/05/16 02:26:41;;;;;;;15.10;2.75;;;12.20;99.90;;;;;;5050449;28;20058;-75
2023/05/16 02:29:08;;;;;;;17.83;3.97;;;12.20;99.90;;;;;;5049439;28;21467;-75
2023/05/16 02:31:34;;;;;;;15.27;3.42;;;12.10;99.90;;;;;;5032597;28;20485;-76
2023/05/16 02:34:00;;;;;;;17.27;2.85;;;12.10;99.90;;;;;;5049802;28;20025;-75
2023/05/16 02:36:26;;;;;;;16.10;3.45;;;12.00;99.90;;;;;;5034851;28;20017;-74
2023/05/16 02:38:52;;;;;;;19.55;3.03;;;11.80;99.90;;;;;;5047699;28;20074;-74
2023/05/16 02:41:21;;;;;;;16.25;3.53;;;11.80;99.90;;;;;;5052154;28;20044;-77
2023/05/16 02:43:47;;;;;;;26.65;4.22;;;11.90;99.90;;;;;;5051080;28;20033;-75
2023/05/16 02:46:23;;;;;;;12.80;2.70;;;11.90;99.90;;;;;;5052808;28;20500;-74
2023/05/16 02:48:50;;;;;;;15.13;3.08;;;11.90;99.90;;;;;;5057915;28;20117;-75
2023/05/16 02:51:16;;;;;;;19.13;3.58;;;11.90;99.90;;;;;;5055638;28;20020;-73
2023/05/16 02:53:42;;;;;;;14.07;3.28;;;11.80;99.90;;;;;;5054657;28;20032;-75
2023/05/16 02:56:09;;;;;;;11.98;2.97;;;11.90;99.90;;;;;;5053219;28;20033;-75
2023/05/16 02:58:35;;;;;;;15.20;3.35;;;11.80;99.90;;;;;;5052656;28;20077;-75
2023/05/16 03:01:00;;;;;;;13.65;3.75;;;11.80;99.90;;;;;;5057691;28;20029;-74
2023/05/16 03:03:26;;;;;;;17.15;3.05;;;11.70;99.90;;;;;;5053967;28;20024;-73
2023/05/16 03:05:52;;;;;;;16.65;3.13;;;11.80;99.90;;;;;;5033470;28;20079;-75
2023/05/16 03:08:18;;;;;;;22.70;4.13;;;11.80;99.90;;;;;;5054680;28;20020;-75
2023/05/16 03:10:43;;;;;;;17.35;3.55;;;11.70;99.90;;;;;;5055015;28;20073;-75
2023/05/16 03:13:09;;;;;;;14.15;3.65;;;11.80;99.90;;;;;;5035842;28;20045;-74
2023/05/16 03:15:35;;;;;;;21.73;4.53;;;11.70;99.90;;;;;;5050894;28;20029;-74
2023/05/16 03:18:01;;;;;;;16.15;3.38;;;11.50;99.90;;;;;;5036834;28;20488;-73
2023/05/16 03:20:26;;;;;;;21.58;3.50;;;11.30;99.90;;;;;;5055244;28;20029;-74
2023/05/16 03:22:52;;;;;;;19.67;3.35;;;11.50;99.90;;;;;;5057982;28;20036;-74
2023/05/16 03:25:18;;;;;;;15.63;3.40;;;11.50;99.90;;;;;;5053623;28;20719;-74
2023/05/16 03:27:43;;;;;;;19.90;3.20;;;11.30;99.90;;;;;;5047932;28;20496;-74
2023/05/16 03:30:10;;;;;;;20.23;3.30;;;11.10;99.90;;;;;;5049546;28;20035;-74
2023/05/16 03:32:37;;;;;;;14.98;2.97;;;11.10;99.90;;;;;;5057954;28;20057;-74
2023/05/16 03:35:03;;;;;;;14.93;3.50;;;11.20;99.90;;;;;;5062463;28;20025;-77
2023/05/16 03:37:29;;;;;;;14.55;3.33;;;11.30;99.90;;;;;;5045017;28;20066;-72
2023/05/16 03:39:55;;;;;;;14.77;3.10;;;11.20;99.90;;;;;;5060344;28;20112;-75
2023/05/16 03:42:21;;;;;;;20.38;3.05;;;11.20;99.90;;;;;;5061273;28;20048;-74
2023/05/16 03:44:46;;;;;;;14.60;3.13;;;11.30;99.90;;;;;;5058895;28;20032;-77
2023/05/16 03:47:12;;;;;;;15.82;3.03;;;11.30;99.90;;;;;;5061592;28;20103;-74
2023/05/16 03:49:39;;;;;;;17.00;3.38;;;11.40;99.90;;;;;;5059525;28;20408;-73
2023/05/16 03:52:05;;;;;;;18.40;3.13;;;11.40;99.90;;;;;;5059294;28;20464;-74
2023/05/16 03:54:31;;;;;;;19.48;3.65;;;11.20;99.90;;;;;;5062392;28;20480;-75
2023/05/16 03:56:57;;;;;;;11.45;3.15;;;11.20;99.90;;;;;;5062594;28;20071;-74
2023/05/16 03:59:22;;;;;;;18.15;3.20;;;11.30;99.90;;;;;;5059292;28;20021;-74
2023/05/16 04:01:49;;;;;;;16.23;3.25;;;11.40;99.90;;;;;;5066384;28;20114;-74
2023/05/16 04:04:15;;;;;;;14.07;3.40;;;11.50;99.90;;;;;;5065429;28;20029;-74
2023/05/16 04:06:40;;;;;;;21.20;3.72;;;11.50;99.90;;;;;;5059515;28;20028;-74
2023/05/16 04:09:06;;;;;;;14.93;3.33;;;11.40;99.90;;;;;;5055735;28;21050;-75
2023/05/16 04:11:33;;;;;;;10.07;3.00;;;11.40;99.90;;;;;;5051311;28;20091;-75
2023/05/16 04:14:00;;;;;;;16.13;3.42;;;11.50;99.90;;;;;;5055552;28;20025;-75
2023/05/16 04:16:26;;;;;;;17.90;3.72;;;11.50;99.90;;;;;;5060759;28;20021;-75
2023/05/16 04:18:52;;;;;;;15.75;3.67;;;11.60;99.90;;;;;;5062373;28;20048;-74
2023/05/16 04:21:17;;;;;;;16.45;3.35;;;11.50;99.90;;;;;;5057198;28;20460;-75
2023/05/16 04:23:43;;;;;;;16.92;2.97;;;11.50;99.90;;;;;;5058462;28;20024;-74
2023/05/16 04:26:09;;;;;;;18.38;3.72;;;11.50;99.90;;;;;;5055881;28;20053;-73
2023/05/16 04:28:35;;;;;;;19.58;3.97;;;11.50;99.90;;;;;;5054226;28;20428;-73
2023/05/16 04:31:01;;;;;;;22.23;3.35;;;11.50;99.90;;;;;;5057036;28;20062;-75
2023/05/16 04:33:27;;;;;;;19.13;3.53;;;11.40;99.90;;;;;;5061831;28;20025;-75
2023/05/16 04:35:53;;;;;;;17.90;3.28;;;11.50;99.90;;;;;;5055169;28;20083;-74
2023/05/16 04:38:19;;;;;;;17.65;3.45;;;11.50;99.90;;;;;;5055052;28;20021;-76
2023/05/16 04:40:45;;;;;;;13.05;3.53;;;11.50;99.90;;;;;;5056311;28;20095;-74
2023/05/16 04:43:11;;;;;;;13.05;2.85;;;11.50;99.90;;;;;;5058878;28;20059;-75
2023/05/16 04:45:36;;;;;;;16.50;3.63;;;11.50;99.90;;;;;;5058011;28;20070;-75
2023/05/16 04:48:02;;;;;;;17.38;3.25;;;11.40;99.90;;;;;;5060404;28;20025;-74
2023/05/16 04:50:28;;;;;;;15.00;3.78;;;11.40;99.90;;;;;;5054527;28;20033;-74
2023/05/16 04:52:54;;;;;;;18.13;3.40;;;11.40;99.90;;;;;;5058050;28;20032;-74
2023/05/16 04:55:20;;;;;;;11.52;2.58;;;11.50;99.90;;;;;;5057609;28;20434;-75
2023/05/16 04:57:45;;;;;;;17.30;3.65;;;11.40;99.90;;;;;;5055802;28;20029;-74
2023/05/16 05:00:12;;;;;;;15.35;3.40;;;11.50;99.90;;;;;;5056814;28;20044;-74
2023/05/16 05:02:37;;;;;;;18.95;4.05;;;11.40;99.90;;;;;;5058847;28;20032;-73
2023/05/16 05:05:04;;;;;;;11.60;3.35;;;11.40;99.90;;;;;;5055636;28;20361;-73
2023/05/16 05:07:31;;;;;;;20.23;3.70;;;11.40;99.90;;;;;;5061692;28;20021;-73
2023/05/16 05:09:57;;;;;;;17.92;3.78;;;11.40;99.90;;;;;;5055731;28;20021;-74
2023/05/16 05:12:24;;;;;;;16.25;3.53;;;11.50;99.90;;;;;;5059520;28;20511;-74
2023/05/16 05:14:50;;;;;;;18.77;3.67;;;11.50;99.90;;;;;;5056637;28;20055;-74
2023/05/16 05:17:16;;;;;;;15.32;4.50;;;11.50;99.90;;;;;;5057591;28;20602;-75
2023/05/16 05:19:42;;;;;;;16.38;3.65;;;11.50;99.90;;;;;;5056764;28;20380;-73
2023/05/16 05:22:08;;;;;;;16.38;3.72;;;11.50;99.90;;;;;;5059361;28;20044;-73
2023/05/16 05:24:33;;;;;;;18.60;4.53;;;11.50;99.90;;;;;;5060974;28;20035;-74
2023/05/16 05:26:59;;;;;;;12.13;3.22;;;11.50;99.90;;;;;;5057243;28;20112;-74
2023/05/16 05:29:26;;;;;;;14.95;3.78;;;11.50;99.90;;;;;;5057819;28;20103;-74
2023/05/16 05:31:51;;;;;;;16.20;4.05;;;11.50;99.90;;;;;;5056798;28;20037;-73
2023/05/16 05:34:17;;;;;;;22.23;3.63;;;11.50;99.90;;;;;;5054817;28;20139;-74
2023/05/16 05:36:43;;;;;;;18.08;3.33;;;11.50;99.90;;;;;;5042435;28;20472;-74
2023/05/16 05:39:09;;;;;;;18.35;4.15;;;11.60;99.90;;;;;;5054052;28;20098;-74
2023/05/16 05:41:35;;;;;;;26.27;3.63;;;11.60;99.90;;;;;;5060972;28;20035;-74
2023/05/16 05:44:01;;;;;;;17.98;4.15;;;11.60;99.90;;;;;;5055469;28;20109;-74
2023/05/16 05:46:26;;;;;;;14.32;3.15;;;11.50;99.90;;;;;;5054338;28;20025;-73
2023/05/16 05:48:52;;;;;;;17.80;3.83;;;11.40;99.90;;;;;;5061364;28;20711;-73
2023/05/16 05:51:18;;;;;;;11.18;3.20;;;11.40;99.90;;;;;;5055149;28;20082;-74
2023/05/16 05:53:44;;;;;;;16.73;3.08;;;11.50;99.90;;;;;;5054818;28;20024;-73
2023/05/16 05:56:09;;;;;;;13.43;3.63;;;11.50;99.90;;;;;;5053941;28;20028;-73
2023/05/16 05:58:35;;;;;;;14.25;2.95;;;11.50;99.90;;;;;;5053722;28;20029;-73
2023/05/16 06:01:01;;;;;;;16.98;3.17;;;11.50;99.90;;;;;;5057820;28;20388;-73
2023/05/16 06:03:27;;;;;;;24.33;4.18;;;11.50;99.90;;;;;;5054984;28;20380;-74
2023/05/16 06:05:52;;;;;;;19.63;3.20;;;11.50;99.90;;;;;;5037567;28;20017;-74
2023/05/16 06:08:18;;;;;;;13.95;2.75;;;11.70;99.90;;;;;;5059469;28;20047;-73
2023/05/16 06:10:44;;;;;;;16.88;2.65;;;11.70;99.90;;;;;;5058337;28;20100;-73
2023/05/16 06:13:10;;;;;;;18.88;3.42;;;11.70;99.90;;;;;;5039582;28;20044;-75
2023/05/16 06:15:36;;;;;;;11.93;3.33;;;11.70;99.90;;;;;;5059178;28;20017;-75
2023/05/16 06:18:02;;;;;;;10.65;2.30;;;11.80;99.90;;;;;;5056368;28;20025;-74
2023/05/16 06:20:27;;;;;;;9.18;2.33;;;11.70;99.90;;;;;;5059043;28;20192;-75
2023/05/16 06:22:53;;;;;;;17.30;2.50;;;11.70;99.90;;;;;;5055873;28;20033;-74
2023/05/16 06:25:19;;;;;;;12.15;2.33;;;11.60;99.90;;;;;;5056492;28;20021;-75
2023/05/16 06:27:45;;;;;;;20.98;3.25;;;11.60;99.90;;;;;;5049892;28;20457;-77
2023/05/16 06:30:11;;;;;;;14.00;2.88;;;11.70;99.90;;;;;;5059198;28;20121;-72
2023/05/16 06:32:36;;;;;;;14.40;2.50;;;11.70;99.90;;;;;;5057337;28;20065;-75
2023/05/16 06:35:02;;;;;;;14.73;2.70;;;11.80;99.90;;;;;;5043828;28;20028;-75
2023/05/16 06:37:28;;;;;;;16.25;2.55;;;11.70;99.90;;;;;;5057085;28;20025;-74
2023/05/16 06:39:53;;;;;;;16.02;3.40;;;11.70;99.90;;;;;;5053106;28;20060;-75
2023/05/16 06:42:19;;;;;;;13.48;2.45;;;11.80;99.90;;;;;;5059298;28;20047;-76
2023/05/16 06:44:45;;;;;;;14.30;2.30;;;11.90;99.90;;;;;;5053170;28;20059;-74
2023/05/16 06:47:11;;;;;;;12.65;3.15;;;11.90;99.90;;;;;;5059257;28;20032;-75
2023/05/16 06:49:37;;;;;;;11.85;2.33;;;12.10;99.90;;;;;;5058655;28;20029;-74
2023/05/16 06:52:03;;;;;;;11.63;2.40;;;12.20;99.90;;;;;;5054511;28;20024;-73
2023/05/16 06:54:29;;;;;;;10.40;2.08;;;12.30;99.90;;;;;;5055192;28;20053;-74
2023/05/16 06:56:55;;;;;;;18.60;2.58;;;12.40;99.90;;;;;;5051914;28;20070;-74
2023/05/16 06:59:20;;;;;;;11.88;2.55;;;12.40;99.90;;;;;;5058563;28;20074;-74
2023/05/16 07:01:46;;;;;;;11.38;2.00;;;12.50;99.90;;;;;;5058718;28;20055;-76
2023/05/16 07:04:12;;;;;;;10.23;2.20;;;12.60;99.90;;;;;;5058261;28;20065;-74
2023/05/16 07:06:38;;;;;;;10.82;2.25;;;12.60;99.90;;;;;;5061181;28;20373;-74
2023/05/16 07:09:03;;;;;;;7.40;1.70;;;12.70;99.90;;;;;;5041792;28;20120;-74
2023/05/16 07:11:29;;;;;;;10.48;2.20;;;12.70;99.90;;;;;;5058902;28;20024;-75
2023/05/16 07:13:55;;;;;;;8.90;1.80;;;12.80;99.90;;;;;;5066924;28;20428;-74
2023/05/16 07:16:21;;;;;;;11.45;2.63;;;12.80;99.90;;;;;;5059019;28;20503;-74
2023/05/16 07:18:46;;;;;;;16.80;2.13;;;12.90;99.90;;;;;;5058736;28;20059;-74
2023/05/16 07:21:12;;;;;;;8.30;2.10;;;12.90;99.90;;;;;;5062175;28;20048;-77
2023/05/16 07:23:38;;;;;;;9.65;2.42;;;13.00;99.90;;;;;;5059425;28;20053;-77
2023/05/16 07:26:03;;;;;;;12.13;2.30;;;13.20;99.90;;;;;;5050458;28;20036;-76
2023/05/16 07:28:30;;;;;;;7.88;1.88;;;13.30;99.90;;;;;;5062471;28;20607;-76
2023/05/16 07:30:57;;;;;;;9.07;1.60;;;13.40;99.90;;;;;;5056988;28;20033;-75
2023/05/16 07:33:23;;;;;;;10.32;2.53;;;13.60;99.90;;;;;;5042312;28;20431;-75
2023/05/16 07:35:50;;;;;;;12.18;2.40;;;13.70;99.90;;;;;;5057549;28;20032;-75
2023/05/16 07:38:15;;;;;;;14.40;1.90;;;13.70;99.90;;;;;;5063109;28;20055;-75
2023/05/16 07:40:41;;;;;;;12.50;2.25;;;13.60;99.90;;;;;;5061324;28;20149;-75
2023/05/16 07:43:07;;;;;;;11.60;2.65;;;13.70;99.90;;;;;;5041887;28;20037;-75
2023/05/16 07:45:33;;;;;;;9.90;2.35;;;13.70;99.90;;;;;;5057108;28;20028;-74
2023/05/16 07:47:59;;;;;;;9.07;2.58;;;13.90;99.90;;;;;;5059440;28;20036;-75
2023/05/16 07:50:25;;;;;;;8.80;1.80;;;14.00;99.90;;;;;;5059811;28;20029;-76
2023/05/16 07:52:51;;;;;;;11.70;2.10;;;13.90;99.90;;;;;;5058916;28;20033;-75
2023/05/16 07:55:17;;;;;;;9.48;2.13;;;13.90;99.90;;;;;;5059741;28;20063;-75
2023/05/16 07:57:43;;;;;;;8.45;1.65;;;13.90;99.90;;;;;;5066530;28;20407;-74
2023/05/16 08:00:09;;;;;;;11.30;1.92;;;13.90;99.90;;;;;;5055745;28;20040;-74
2023/05/16 08:02:35;;;;;;;6.18;1.42;;;14.00;99.90;;;;;;5057756;28;20087;-74
2023/05/16 08:05:01;;;;;;;10.93;1.90;;;14.10;99.90;;;;;;5059517;28;20024;-73
2023/05/16 08:07:27;;;;;;;5.07;1.90;;;14.00;99.90;;;;;;5058870;28;20020;-75
2023/05/16 08:09:52;;;;;;;9.18;1.70;;;14.00;99.90;;;;;;5059606;28;20028;-75
2023/05/16 08:12:18;;;;;;;6.85;1.88;;;14.00;99.90;;;;;;5059248;28;20060;-75
2023/05/16 08:14:44;;;;;;;10.18;1.80;;;14.00;99.90;;;;;;5060622;28;20477;-75
2023/05/16 08:17:11;;;;;;;8.52;1.55;;;14.10;99.90;;;;;;5060005;28;20048;-76
2023/05/16 08:19:36;;;;;;;7.68;1.10;;;14.20;99.90;;;;;;5058944;28;20465;-74
2023/05/16 08:22:02;;;;;;;4.78;1.27;;;14.20;99.90;;;;;;5057383;28;20036;-75
2023/05/16 08:24:28;;;;;;;8.43;1.42;;;14.30;99.90;;;;;;5058850;28;20025;-75
2023/05/16 08:26:54;;;;;;;9.55;1.73;;;14.50;99.90;;;;;;5056673;28;20409;-77
2023/05/16 08:29:20;;;;;;;9.00;1.80;;;14.70;99.90;;;;;;5065958;28;20016;-76
2023/05/16 08:31:46;;;;;;;8.25;1.48;;;15.00;99.90;;;;;;5055755;28;20029;-75
2023/05/16 08:34:12;;;;;;;7.28;1.60;;;15.00;99.90;;;;;;5056265;28;20041;-75
2023/05/16 08:36:38;;;;;;;6.40;1.20;;;15.10;99.90;;;;;;5056182;28;20058;-74
2023/05/16 08:39:04;;;;;;;5.90;1.27;;;15.30;99.90;;;;;;5043189;28;20029;-74
2023/05/16 08:41:30;;;;;;;9.27;1.58;;;15.50;99.90;;;;;;5061180;28;20079;-75
2023/05/16 08:43:56;;;;;;;4.93;1.25;;;15.60;99.90;;;;;;5061674;28;20057;-76
2023/05/16 08:46:23;;;;;;;6.63;1.20;;;15.80;99.90;;;;;;5049117;28;20439;-77
2023/05/16 08:48:53;;;;;;;9.52;1.50;;;16.00;99.90;;;;;;5057247;28;20545;-82
2023/05/16 08:51:20;;;;;;;6.47;1.35;;;16.10;99.90;;;;;;5060506;28;20032;-79
2023/05/16 08:53:56;;;;;;;7.00;1.40;;;16.20;99.90;;;;;;5043660;28;20012;-77
2023/05/16 08:56:22;;;;;;;6.85;1.33;;;16.10;99.90;;;;;;5042125;28;20020;-77
2023/05/16 08:58:50;;;;;;;7.53;1.23;;;16.00;99.90;;;;;;5058975;28;20392;-77
2023/05/16 09:01:17;;;;;;;6.80;1.40;;;16.00;99.90;;;;;;5060322;28;20033;-78
2023/05/16 09:03:43;;;;;;;11.30;1.33;;;16.20;99.90;;;;;;5055698;28;20103;-76
2023/05/16 09:06:09;;;;;;;7.35;1.30;;;16.40;99.90;;;;;;5056214;28;20029;-76
2023/05/16 09:08:34;;;;;;;3.92;1.00;;;16.60;99.90;;;;;;5042359;28;20024;-76
2023/05/16 09:11:01;;;;;;;10.32;1.50;;;16.70;99.90;;;;;;5056746;28;20566;-76
2023/05/16 09:13:27;;;;;;;8.88;1.48;;;16.70;99.90;;;;;;5064709;28;20063;-76
2023/05/16 09:16:09;;;;;;;3.92;1.25;;;16.80;99.90;;;;;;5055919;28;20065;-76
2023/05/16 09:18:36;;;;;;;5.60;1.77;;;17.00;99.90;;;;;;5060474;28;20020;-77
2023/05/16 09:21:04;;;;;;;7.57;1.38;;;16.80;99.90;;;;;;5063093;28;20023;-77
2023/05/16 09:23:30;;;;;;;4.97;1.30;;;16.70;99.90;;;;;;5056107;28;20033;-77
2023/05/16 09:25:57;;;;;;;9.38;1.27;;;16.60;99.90;;;;;;5057837;28;20056;-77
2023/05/16 09:28:24;;;;;;;5.25;1.20;;;17.00;99.90;;;;;;5057184;28;20032;-75
2023/05/16 09:30:52;;;;;;;5.60;1.50;;;17.20;99.90;;;;;;5056228;28;20020;-76
2023/05/16 09:33:17;;;;;;;4.18;1.20;;;17.40;99.90;;;;;;5055461;28;20025;-76
2023/05/16 09:35:43;;;;;;;5.80;1.83;;;17.50;99.90;;;;;;5058821;28;20035;-76
2023/05/16 09:38:15;;;;;;;5.80;1.30;;;17.60;99.90;;;;;;5058533;28;20035;-76
2023/05/16 09:40:41;;;;;;;3.07;1.20;;;17.90;99.90;;;;;;5061548;28;20500;-76
2023/05/16 09:43:07;;;;;;;3.35;1.20;;;18.20;99.90;;;;;;5060695;28;20028;-76
2023/05/16 09:45:34;;;;;;;9.70;1.52;;;18.00;99.90;;;;;;5055798;28;20028;-77
2023/05/16 09:48:06;;;;;;;4.68;1.42;;;17.70;99.90;;;;;;5060763;28;20029;-80
2023/05/16 09:50:33;;;;;;;6.82;1.30;;;17.40;99.90;;;;;;5054445;28;20039;-78
2023/05/16 09:52:59;;;;;;;8.50;1.50;;;17.30;99.90;;;;;;5042448;28;20033;-77
2023/05/16 09:55:25;;;;;;;4.20;1.35;;;17.20;99.90;;;;;;5057886;28;20013;-77
2023/05/16 09:57:51;;;;;;;5.75;1.30;;;17.10;99.90;;;;;;5056541;28;20031;-77
2023/05/16 10:00:18;;;;;;;7.20;1.60;;;16.90;99.90;;;;;;5054476;28;20025;-77
2023/05/16 10:02:44;;;;;;;2.45;1.13;;;16.80;99.90;;;;;;5056694;28;20037;-77
2023/05/16 10:05:10;;;;;;;5.72;0.85;;;16.80;99.90;;;;;;5058127;28;20024;-77
2023/05/16 10:07:38;;;;;;;6.88;1.27;;;16.70;99.90;;;;;;5055473;28;20392;-78
2023/05/16 10:10:08;;;;;;;5.22;2.08;;;16.80;99.90;;;;;;5055030;28;20033;-78
2023/05/16 10:12:35;;;;;;;5.40;1.65;;;16.60;99.90;;;;;;5053835;28;20111;-79
2023/05/16 10:15:03;;;;;;;6.35;1.65;;;16.40;99.90;;;;;;5061338;28;20079;-78
2023/05/16 10:17:32;;;;;;;3.92;1.27;;;16.40;99.90;;;;;;5059468;28;20021;-78
2023/05/16 10:20:04;;;;;;;6.80;1.48;;;16.20;99.90;;;;;;5054183;28;20090;-78
2023/05/16 10:22:34;;;;;;;7.38;1.88;;;16.70;99.90;;;;;;5033590;28;20692;-77
2023/05/16 10:25:11;;;;;;;4.13;1.30;;;17.30;99.90;;;;;;5047641;28;20029;-77
2023/05/16 10:27:39;;;;;;;5.45;1.40;;;17.60;99.90;;;;;;5056317;28;20112;-78
2023/05/16 10:30:07;;;;;;;8.07;2.08;;;17.30;99.90;;;;;;5056458;28;20067;-77
2023/05/16 10:32:33;;;;;;;5.60;1.27;;;17.30;99.90;;;;;;5053830;28;20024;-77
2023/05/16 10:35:01;;;;;;;88.93;33.15;;;17.30;99.90;;;;;;5055808;28;20021;-77
2023/05/16 10:37:29;;;;;;;5.72;1.30;;;17.40;99.90;;;;;;5056256;28;20028;-76
2023/05/16 10:39:56;;;;;;;6.00;2.05;;;17.40;99.90;;;;;;5053509;28;20031;-77
2023/05/16 10:42:21;;;;;;;5.25;1.58;;;17.70;99.90;;;;;;5053574;28;20056;-77
2023/05/16 10:44:47;;;;;;;5.80;0.90;;;17.80;99.90;;;;;;5056005;28;20021;-78
2023/05/16 10:47:18;;;;;;;7.30;1.48;;;17.70;99.90;;;;;;5040046;28;20033;-78
2023/05/16 10:49:44;;;;;;;3.22;1.25;;;17.60;99.90;;;;;;5052969;28;20473;-77
2023/05/16 10:52:12;;;;;;;5.72;1.63;;;17.90;99.90;;;;;;5055987;28;20070;-77
2023/05/16 10:54:43;;;;;;;4.68;1.35;;;18.20;99.90;;;;;;5054503;28;20028;-76
2023/05/16 10:57:16;;;;;;;5.00;1.50;;;18.30;99.90;;;;;;5059981;28;20040;-77
2023/05/16 10:59:45;;;;;;;7.93;1.58;;;18.60;99.90;;;;;;5054571;28;20541;-79
2023/05/16 11:02:33;;;;;;;3.78;1.40;;;18.60;99.90;;;;;;5057609;28;20047;-78
2023/05/16 11:05:01;;;;;;;4.53;1.00;;;18.80;99.90;;;;;;5052611;28;20477;-79
2023/05/16 11:07:35;;;;;;;5.78;1.20;;;18.90;99.90;;;;;;5057273;28;20016;-80
2023/05/16 11:10:05;;;;;;;4.63;1.33;;;19.20;99.90;;;;;;5055691;28;20024;-78
2023/05/16 11:12:48;;;;;;;6.90;0.93;;;19.30;99.90;;;;;;5058674;28;20028;-79
2023/05/16 11:15:25;;;;;;;5.45;1.30;;;19.40;99.90;;;;;;5057247;28;20059;-78
2023/05/16 11:18:05;;;;;;;5.00;0.82;;;19.60;99.90;;;;;;5059565;28;20028;-79
2023/05/16 11:20:35;;;;;;;4.88;1.27;;;19.70;99.90;;;;;;5057567;28;20013;-79
2023/05/16 11:23:22;;;;;;;6.40;1.17;;;19.60;99.90;;;;;;5052682;28;20472;-79
2023/05/16 11:25:57;;;;;;;6.65;1.13;;;19.20;99.90;;;;;;5058615;28;20108;-79
2023/05/16 11:28:26;;;;;;;5.03;1.40;;;19.00;99.90;;;;;;5057834;28;20025;-77
2023/05/16 11:30:58;;;;;;;7.47;1.00;;;18.60;99.90;;;;;;5036084;28;20388;-78
2023/05/16 11:33:24;;;;;;;4.43;1.10;;;18.50;99.90;;;;;;5052111;28;20021;-78
2023/05/16 11:36:04;;;;;;;9.05;1.63;;;18.70;99.90;;;;;;5055939;28;20450;-75
2023/05/16 11:38:31;;;;;;;2.20;1.20;;;19.10;99.90;;;;;;5055123;28;20522;-75
2023/05/16 11:41:07;;;;;;;6.32;1.20;;;19.40;99.90;;;;;;5058215;28;20079;-76
2023/05/16 11:43:44;;;;;;;6.53;1.30;;;19.80;99.90;;;;;;5057216;28;20033;-75
2023/05/16 11:46:13;;;;;;;4.63;1.15;;;19.90;99.90;;;;;;5055135;28;20449;-77
2023/05/16 11:48:40;;;;;;;3.88;1.30;;;19.60;99.90;;;;;;5052845;28;20378;-76
2023/05/16 11:51:06;;;;;;;4.50;1.15;;;19.40;99.90;;;;;;5039760;28;20020;-78
2023/05/16 11:53:33;;;;;;;3.47;1.13;;;19.00;99.90;;;;;;5057421;28;20017;-78
2023/05/16 11:56:00;;;;;;;8.88;1.63;;;18.70;99.90;;;;;;5056033;28;20048;-78
2023/05/16 11:58:27;;;;;;;6.63;1.23;;;18.60;99.90;;;;;;5056345;28;20020;-78
2023/05/16 12:00:53;;;;;;;2.85;1.02;;;18.70;99.90;;;;;;5053737;28;20025;-77
2023/05/16 12:03:19;;;;;;;4.70;1.25;;;19.10;99.90;;;;;;5056434;28;20098;-77
2023/05/16 12:05:58;;;;;;;5.10;1.15;;;19.10;99.90;;;;;;5051523;28;20078;-78
2023/05/16 12:08:24;;;;;;;4.63;1.20;;;19.00;99.90;;;;;;5038602;28;20035;-78
2023/05/16 12:10:51;;;;;;;5.22;1.52;;;18.80;99.90;;;;;;5054520;28;20025;-79
2023/05/16 12:13:22;;;;;;;6.00;1.27;;;18.70;99.90;;;;;;5056414;28;20041;-79
2023/05/16 12:15:49;;;;;;;5.45;1.20;;;18.60;99.90;;;;;;5052903;28;20033;-79
2023/05/16 12:18:15;;;;;;;8.30;1.55;;;18.60;99.90;;;;;;5043014;28;20033;-81
2023/05/16 12:20:43;;;;;;;4.10;1.50;;;18.50;99.90;;;;;;5051502;28;20028;-79
2023/05/16 12:23:13;;;;;;;6.55;1.60;;;18.50;99.90;;;;;;5037494;28;20119;-80
2023/05/16 12:25:45;;;;;;;5.38;1.08;;;18.40;99.90;;;;;;5034958;28;20016;-78
2023/05/16 12:28:14;;;;;;;7.03;1.60;;;18.50;99.90;;;;;;5040876;28;20029;-78
2023/05/16 12:30:42;;;;;;;6.15;1.55;;;18.90;99.90;;;;;;5036890;28;20028;-78
2023/05/16 12:33:12;;;;;;;8.10;2.13;;;19.10;99.90;;;;;;5055635;28;20017;-79
2023/05/16 12:35:44;;;;;;;6.25;1.90;;;18.80;99.90;;;;;;5057466;28;20554;-80
2023/05/16 12:38:12;;;;;;;8.85;1.52;;;19.00;99.90;;;;;;5050300;28;20032;-81
2023/05/16 12:40:40;;;;;;;5.38;1.35;;;19.10;99.90;;;;;;5055190;28;20035;-79
2023/05/16 12:43:15;;;;;;;6.57;1.40;;;19.00;99.90;;;;;;5051416;28;20091;-79